Time;durP1;ratioP1;P1;durP2;ratioP2;P2;SDS_P1;SDS_P2;PMS_P1;PMS_P2;Temp;Humidity;BMP_temperature;BMP_pressure;BME280_temperature;BME280_humidity;BME280_pressure;Samples;Min_cycle;Max_cycle;Signal;HPM_P1;HPM_P2
2021/01/31 00:02:32;;;;;;;8.43;6.90;;;;;;;;;;5054543;28;20626;-71
2021/01/31 00:05:36;;;;;;;9.10;6.60;;;;;;;;;;5054061;28;20594;-72
2021/01/31 00:08:40;;;;;;;5.03;4.43;;;;;;;;;;5054427;28;20586;-71
2021/01/31 00:11:45;;;;;;;5.20;4.17;;;;;;;;;;5054055;28;21209;-71
2021/01/31 00:14:49;;;;;;;4.53;3.73;;;;;;;;;;5053681;28;20590;-71
2021/01/31 00:17:53;;;;;;;5.13;3.93;;;;;;;;;;5039967;28;20551;-71
2021/01/31 00:20:58;;;;;;;4.77;4.10;;;;;;;;;;5038335;28;20614;-72
2021/01/31 00:24:02;;;;;;;5.03;3.90;;;;;;;;;;5053926;28;20571;-72
2021/01/31 00:27:06;;;;;;;4.80;3.87;;;;;;;;;;5053909;28;20578;-72
2021/01/31 00:30:22;;;;;;;4.00;3.60;;;;;;;;;;5041816;28;20535;-72
2021/01/31 00:33:28;;;;;;;4.30;3.90;;;;;;;;;;5019282;28;20590;-72
2021/01/31 00:36:32;;;;;;;4.10;3.70;;;;;;;;;;5053671;28;20609;-72
2021/01/31 00:39:37;;;;;;;4.60;3.53;;;;;;;;;;5053697;28;20594;-72
2021/01/31 00:42:41;;;;;;;4.47;3.97;;;;;;;;;;5041218;28;20626;-72
2021/01/31 00:45:46;;;;;;;4.97;4.20;;;;;;;;;;5053154;28;20590;-72
2021/01/31 00:48:49;;;;;;;4.50;4.10;;;;;;;;;;5030103;28;20543;-72
2021/01/31 00:51:54;;;;;;;4.87;3.70;;;;;;;;;;5041220;28;20986;-72
2021/01/31 00:54:58;;;;;;;4.73;3.70;;;;;;;;;;5053377;28;20953;-72
2021/01/31 00:58:02;;;;;;;4.03;3.63;;;;;;;;;;5041063;28;21128;-72
2021/01/31 01:01:07;;;;;;;4.40;3.43;;;;;;;;;;5032829;28;20619;-72
2021/01/31 01:04:11;;;;;;;5.27;3.90;;;;;;;;;;5050063;28;20622;-72
2021/01/31 01:07:31;;;;;;;5.10;4.20;;;;;;;;;;5029863;28;20547;-72
2021/01/31 01:10:36;;;;;;;5.50;4.20;;;;;;;;;;5040808;28;20614;-72
2021/01/31 01:13:40;;;;;;;5.77;4.40;;;;;;;;;;5052919;28;20547;-73
2021/01/31 01:16:44;;;;;;;5.80;4.87;;;;;;;;;;5040787;28;20539;-73
2021/01/31 01:19:48;;;;;;;6.30;4.63;;;;;;;;;;5053052;28;20598;-73
2021/01/31 01:22:53;;;;;;;4.97;4.13;;;;;;;;;;5041021;28;20594;-73
2021/01/31 01:25:58;;;;;;;6.20;4.50;;;;;;;;;;5021403;28;20536;-73
2021/01/31 01:29:01;;;;;;;5.83;4.83;;;;;;;;;;5033276;28;21102;-73
2021/01/31 01:32:06;;;;;;;7.33;5.23;;;;;;;;;;5020746;28;20623;-73
2021/01/31 01:35:11;;;;;;;5.43;4.80;;;;;;;;;;5050209;28;20590;-73
2021/01/31 01:38:15;;;;;;;7.90;5.87;;;;;;;;;;5057263;28;20602;-73
2021/01/31 01:41:19;;;;;;;7.67;5.93;;;;;;;;;;5045013;28;20614;-73
2021/01/31 01:44:23;;;;;;;8.10;5.50;;;;;;;;;;5056605;28;20621;-73
2021/01/31 01:47:29;;;;;;;7.23;5.50;;;;;;;;;;5044594;28;21163;-73
2021/01/31 01:50:47;;;;;;;7.30;6.00;;;;;;;;;;5056554;28;20590;-73
2021/01/31 01:53:51;;;;;;;7.67;5.40;;;;;;;;;;5044529;28;20598;-73
2021/01/31 01:57:03;;;;;;;7.50;5.70;;;;;;;;;;5056993;28;20535;-73
2021/01/31 02:00:09;;;;;;;7.60;5.60;;;;;;;;;;5043950;28;20655;-73
2021/01/31 02:03:18;;;;;;;7.27;5.30;;;;;;;;;;5044201;28;20614;-73
2021/01/31 02:06:28;;;;;;;7.03;4.90;;;;;;;;;;5044571;28;20535;-73
2021/01/31 02:09:33;;;;;;;7.10;5.40;;;;;;;;;;5044795;28;20536;-73
2021/01/31 02:12:38;;;;;;;7.23;5.33;;;;;;;;;;5044140;28;20984;-73
2021/01/31 02:15:45;;;;;;;6.83;5.50;;;;;;;;;;5036763;28;20540;-73
2021/01/31 02:19:17;;;;;;;8.43;5.37;;;;;;;;;;5026651;28;20548;-73
2021/01/31 02:22:43;;;;;;;6.27;4.77;;;;;;;;;;5056458;28;20618;-73
2021/01/31 02:26:33;;;;;;;6.67;5.30;;;;;;;;;;5053994;28;20583;-73
2021/01/31 02:29:56;;;;;;;6.70;5.00;;;;;;;;;;5034231;28;20608;-73
2021/01/31 02:33:25;;;;;;;6.33;5.30;;;;;;;;;;5055859;28;20580;-73
2021/01/31 02:36:49;;;;;;;6.70;5.27;;;;;;;;;;5044025;28;20531;-73
2021/01/31 02:40:03;;;;;;;7.13;5.60;;;;;;;;;;5056119;28;20587;-73
2021/01/31 02:43:16;;;;;;;7.83;5.33;;;;;;;;;;5032743;28;20590;-73
2021/01/31 02:46:37;;;;;;;7.47;5.40;;;;;;;;;;5056037;28;20539;-74
2021/01/31 02:49:52;;;;;;;7.43;5.63;;;;;;;;;;5055542;28;20590;-74
2021/01/31 02:53:18;;;;;;;7.03;5.67;;;;;;;;;;5055493;28;20590;-74
2021/01/31 02:56:43;;;;;;;6.90;5.40;;;;;;;;;;5031817;28;20586;-73
2021/01/31 02:59:58;;;;;;;7.70;5.93;;;;;;;;;;5055240;28;20624;-74
2021/01/31 03:03:10;;;;;;;8.73;6.07;;;;;;;;;;5055306;28;20599;-74
2021/01/31 03:06:21;;;;;;;6.97;5.80;;;;;;;;;;5031834;28;20590;-74
2021/01/31 03:09:38;;;;;;;7.97;5.90;;;;;;;;;;5043073;28;20591;-74
2021/01/31 03:12:55;;;;;;;8.63;6.50;;;;;;;;;;5042646;28;21231;-74
2021/01/31 03:16:39;;;;;;;7.17;5.80;;;;;;;;;;5043151;28;21195;-74
2021/01/31 03:20:00;;;;;;;8.50;6.40;;;;;;;;;;4997184;28;20605;-74
2021/01/31 03:23:12;;;;;;;8.23;6.37;;;;;;;;;;5052240;28;20599;-73
2021/01/31 03:26:36;;;;;;;7.73;6.50;;;;;;;;;;5043086;28;20543;-74
2021/01/31 03:29:40;;;;;;;8.33;6.63;;;;;;;;;;5055524;28;20540;-73
2021/01/31 03:32:44;;;;;;;8.50;6.40;;;;;;;;;;5054645;28;20994;-74
2021/01/31 03:35:51;;;;;;;9.07;6.60;;;;;;;;;;5042452;28;20590;-74
2021/01/31 03:38:57;;;;;;;13.57;7.70;;;;;;;;;;5054763;28;20602;-74
2021/01/31 03:42:01;;;;;;;10.57;7.50;;;;;;;;;;5031182;28;20639;-73
2021/01/31 03:45:07;;;;;;;10.80;7.73;;;;;;;;;;5054697;28;20547;-73
2021/01/31 03:48:15;;;;;;;9.27;7.20;;;;;;;;;;5042566;28;20605;-73
2021/01/31 03:51:19;;;;;;;10.07;7.97;;;;;;;;;;5054517;28;21236;-73
2021/01/31 03:54:24;;;;;;;11.37;8.30;;;;;;;;;;5054538;28;21077;-74
2021/01/31 03:57:53;;;;;;;11.30;8.53;;;;;;;;;;5041740;28;20618;-73
2021/01/31 04:01:01;;;;;;;8.97;6.83;;;;;;;;;;5042090;28;20666;-74
2021/01/31 04:04:17;;;;;;;12.37;8.03;;;;;;;;;;5054590;28;20559;-73
2021/01/31 04:07:27;;;;;;;9.67;7.20;;;;;;;;;;5054540;28;20587;-74
2021/01/31 04:10:31;;;;;;;9.10;7.23;;;;;;;;;;5054437;28;20539;-74
2021/01/31 04:13:36;;;;;;;13.17;7.97;;;;;;;;;;5034228;28;20536;-74
2021/01/31 04:16:45;;;;;;;11.63;8.30;;;;;;;;;;5043704;28;20595;-74
2021/01/31 04:19:49;;;;;;;12.63;8.60;;;;;;;;;;5041682;28;20638;-73
2021/01/31 04:22:53;;;;;;;11.53;8.00;;;;;;;;;;5054047;28;21163;-74
2021/01/31 04:25:57;;;;;;;10.83;7.97;;;;;;;;;;5053964;28;20606;-74
2021/01/31 04:29:02;;;;;;;12.13;8.80;;;;;;;;;;5034194;28;20552;-73
2021/01/31 04:32:06;;;;;;;12.63;8.47;;;;;;;;;;5035537;28;20627;-74
2021/01/31 04:35:11;;;;;;;12.10;8.37;;;;;;;;;;5053569;28;20590;-74
2021/01/31 04:38:16;;;;;;;14.23;8.83;;;;;;;;;;5034297;28;20595;-73
2021/01/31 04:41:20;;;;;;;11.23;7.80;;;;;;;;;;5040951;28;20662;-74
2021/01/31 04:44:25;;;;;;;10.67;8.77;;;;;;;;;;5053870;28;20552;-74
2021/01/31 04:47:39;;;;;;;13.60;8.87;;;;;;;;;;5029774;28;20597;-74
2021/01/31 04:51:06;;;;;;;11.87;8.40;;;;;;;;;;5033351;28;20919;-74
2021/01/31 04:54:22;;;;;;;11.17;8.33;;;;;;;;;;5009714;28;20615;-73
2021/01/31 04:57:38;;;;;;;13.80;8.97;;;;;;;;;;5048283;28;20622;-73
2021/01/31 05:00:52;;;;;;;13.03;9.03;;;;;;;;;;5042466;28;20646;-72
2021/01/31 05:04:05;;;;;;;13.37;9.47;;;;;;;;;;5053136;28;20551;-73
2021/01/31 05:07:10;;;;;;;10.60;8.30;;;;;;;;;;5052499;28;20575;-73
2021/01/31 05:10:14;;;;;;;12.20;8.57;;;;;;;;;;5052376;28;20592;-72
2021/01/31 05:13:30;;;;;;;12.07;8.67;;;;;;;;;;5033080;28;20591;-72
2021/01/31 05:16:35;;;;;;;12.47;8.93;;;;;;;;;;5022828;28;20584;-73
2021/01/31 05:19:39;;;;;;;13.37;9.23;;;;;;;;;;5033043;28;20607;-72
2021/01/31 05:22:50;;;;;;;14.40;10.00;;;;;;;;;;5032914;28;20620;-72
2021/01/31 05:25:54;;;;;;;12.97;9.23;;;;;;;;;;5037525;28;20594;-73
2021/01/31 05:29:01;;;;;;;13.87;10.27;;;;;;;;;;5052881;28;20618;-73
2021/01/31 05:32:12;;;;;;;12.13;8.93;;;;;;;;;;5052531;28;21211;-72
2021/01/31 05:35:21;;;;;;;13.07;8.73;;;;;;;;;;5052920;28;20563;-72
2021/01/31 05:38:40;;;;;;;15.63;10.20;;;;;;;;;;5033179;28;20536;-72
2021/01/31 05:41:49;;;;;;;18.07;10.37;;;;;;;;;;5033238;28;20666;-72
2021/01/31 05:45:01;;;;;;;14.80;9.90;;;;;;;;;;5020721;28;21121;-72
2021/01/31 05:48:25;;;;;;;13.07;9.87;;;;;;;;;;5020957;28;20540;-72
2021/01/31 05:51:34;;;;;;;13.23;9.37;;;;;;;;;;5040981;28;20654;-72
2021/01/31 05:54:39;;;;;;;14.67;9.70;;;;;;;;;;5040847;28;20539;-72
2021/01/31 05:57:44;;;;;;;13.80;9.77;;;;;;;;;;5052666;28;20626;-72
2021/01/31 06:01:05;;;;;;;15.10;9.60;;;;;;;;;;5052156;28;20708;-72
2021/01/31 06:04:16;;;;;;;15.03;11.13;;;;;;;;;;5052805;28;20890;-72
2021/01/31 06:07:20;;;;;;;14.90;10.37;;;;;;;;;;5052372;28;21176;-72
2021/01/31 06:10:25;;;;;;;14.73;10.73;;;;;;;;;;5053320;28;21171;-72
2021/01/31 06:13:30;;;;;;;15.10;10.03;;;;;;;;;;5040361;28;20562;-72
2021/01/31 06:16:36;;;;;;;15.60;9.90;;;;;;;;;;5052164;28;20597;-72
2021/01/31 06:19:42;;;;;;;15.07;10.17;;;;;;;;;;5052748;28;20559;-72
2021/01/31 06:22:50;;;;;;;16.77;11.03;;;;;;;;;;5043945;28;20614;-72
2021/01/31 06:25:54;;;;;;;13.63;9.63;;;;;;;;;;5056119;28;20621;-72
2021/01/31 06:29:05;;;;;;;15.20;10.07;;;;;;;;;;5055029;28;20598;-72
2021/01/31 06:32:15;;;;;;;17.97;10.90;;;;;;;;;;5046754;28;20641;-72
2021/01/31 06:35:25;;;;;;;13.40;9.53;;;;;;;;;;5043714;28;20570;-72
2021/01/31 06:38:32;;;;;;;14.77;9.80;;;;;;;;;;5056004;28;20586;-72
2021/01/31 06:42:07;;;;;;;14.10;10.07;;;;;;;;;;5035883;28;20663;-72
2021/01/31 06:45:33;;;;;;;14.10;9.63;;;;;;;;;;5053166;28;20958;-72
2021/01/31 06:49:31;;;;;;;17.30;10.57;;;;;;;;;;5036437;28;20544;-72
2021/01/31 06:53:05;;;;;;;15.17;10.40;;;;;;;;;;4994356;28;21257;-72
2021/01/31 06:56:40;;;;;;;13.80;9.23;;;;;;;;;;5000918;28;20633;-72
2021/01/31 07:00:01;;;;;;;15.27;9.67;;;;;;;;;;5038176;28;21093;-72
2021/01/31 07:03:16;;;;;;;22.80;13.43;;;;;;;;;;5055741;28;20583;-72
2021/01/31 07:06:20;;;;;;;20.33;11.83;;;;;;;;;;5055506;28;20590;-72
2021/01/31 07:09:35;;;;;;;18.03;11.20;;;;;;;;;;5032161;28;20550;-72
2021/01/31 07:13:02;;;;;;;16.83;10.13;;;;;;;;;;5042937;28;20630;-72
2021/01/31 07:16:18;;;;;;;17.33;10.30;;;;;;;;;;5024229;28;20570;-72
2021/01/31 07:19:29;;;;;;;15.20;10.43;;;;;;;;;;5023157;28;20598;-72
2021/01/31 07:22:57;;;;;;;16.30;10.30;;;;;;;;;;5035072;28;21037;-72
2021/01/31 07:26:33;;;;;;;17.13;10.23;;;;;;;;;;5035330;28;20550;-72
2021/01/31 07:29:49;;;;;;;16.57;9.97;;;;;;;;;;5048632;28;20585;-75
2021/01/31 07:32:57;;;;;;;15.03;9.77;;;;;;;;;;5054277;28;20610;-75
2021/01/31 07:36:07;;;;;;;16.07;10.17;;;;;;;;;;5035034;28;20548;-75
2021/01/31 07:39:27;;;;;;;16.90;10.33;;;;;;;;;;5044811;28;20602;-75
2021/01/31 07:42:35;;;;;;;16.90;10.77;;;;;;;;;;5054490;28;20662;-74
2021/01/31 07:45:39;;;;;;;18.67;11.83;;;;;;;;;;5040237;28;20614;-73
2021/01/31 07:48:43;;;;;;;17.20;10.23;;;;;;;;;;5054065;28;20590;-75
2021/01/31 07:52:04;;;;;;;15.77;10.17;;;;;;;;;;5039864;28;20657;-74
2021/01/31 07:55:09;;;;;;;16.80;10.97;;;;;;;;;;5035151;28;20547;-75
2021/01/31 07:58:25;;;;;;;16.80;11.07;;;;;;;;;;5022590;28;20547;-75
2021/01/31 08:01:39;;;;;;;16.33;10.57;;;;;;;;;;5044764;28;20678;-75
2021/01/31 08:04:43;;;;;;;17.90;11.43;;;;;;;;;;5042095;28;20558;-75
2021/01/31 08:08:04;;;;;;;17.47;10.80;;;;;;;;;;5041844;28;20585;-75
2021/01/31 08:11:17;;;;;;;15.60;10.03;;;;;;;;;;5054200;28;20650;-74
2021/01/31 08:15:15;;;;;;;17.27;10.77;;;;;;;;;;5035727;23;20713;-74
2021/01/31 08:18:20;;;;;;;17.33;11.40;;;;;;;;;;4938613;28;20692;-72
2021/01/31 08:21:49;;;;;;;16.20;11.07;;;;;;;;;;5013242;28;20667;-71
2021/01/31 08:25:05;;;;;;;16.17;10.50;;;;;;;;;;5013653;28;20539;-72
2021/01/31 08:28:21;;;;;;;15.53;10.20;;;;;;;;;;5014670;28;20540;-71
2021/01/31 08:31:26;;;;;;;15.23;10.40;;;;;;;;;;5013731;28;20651;-74
2021/01/31 08:34:30;;;;;;;16.90;10.30;;;;;;;;;;5000633;28;20958;-74
2021/01/31 08:37:34;;;;;;;17.27;10.87;;;;;;;;;;5013864;28;20573;-73
2021/01/31 08:40:39;;;;;;;15.20;10.27;;;;;;;;;;5012809;28;20596;-71
2021/01/31 08:43:49;;;;;;;15.97;10.07;;;;;;;;;;5000850;28;20584;-72
2021/01/31 08:47:02;;;;;;;13.97;9.60;;;;;;;;;;5001632;28;20595;-73
2021/01/31 08:50:08;;;;;;;15.23;9.60;;;;;;;;;;5014057;28;20893;-72
2021/01/31 08:53:12;;;;;;;16.60;10.60;;;;;;;;;;5013662;28;20589;-73
2021/01/31 08:56:20;;;;;;;16.23;10.43;;;;;;;;;;5001523;28;20596;-73
2021/01/31 08:59:34;;;;;;;14.17;10.10;;;;;;;;;;4990203;28;20591;-73
2021/01/31 09:02:43;;;;;;;15.77;11.00;;;;;;;;;;5001027;28;20660;-73
2021/01/31 09:05:48;;;;;;;15.20;10.77;;;;;;;;;;5013549;28;21169;-72
2021/01/31 09:08:54;;;;;;;15.50;10.67;;;;;;;;;;5013338;28;20588;-73
2021/01/31 09:12:04;;;;;;;16.87;10.30;;;;;;;;;;4993685;28;20633;-73
2021/01/31 09:15:25;;;;;;;16.13;10.53;;;;;;;;;;4981815;28;20617;-73
2021/01/31 09:18:30;;;;;;;17.43;10.97;;;;;;;;;;4994025;28;20546;-73
2021/01/31 09:21:35;;;;;;;16.07;10.40;;;;;;;;;;4993815;28;20657;-73
2021/01/31 09:24:41;;;;;;;15.27;10.30;;;;;;;;;;4970795;28;20592;-73
2021/01/31 09:27:59;;;;;;;14.97;10.03;;;;;;;;;;4986597;28;20600;-73
2021/01/31 09:31:04;;;;;;;18.97;11.67;;;;;;;;;;5001138;28;20635;-73
2021/01/31 09:34:10;;;;;;;15.53;10.87;;;;;;;;;;5012963;28;20620;-73
2021/01/31 09:37:29;;;;;;;15.73;11.13;;;;;;;;;;5000900;28;20600;-72
2021/01/31 09:40:36;;;;;;;15.00;10.83;;;;;;;;;;5001306;28;20548;-73
2021/01/31 09:43:42;;;;;;;15.60;10.80;;;;;;;;;;5012862;28;20620;-73
2021/01/31 09:46:46;;;;;;;16.30;11.00;;;;;;;;;;5000678;28;20623;-72
2021/01/31 09:49:58;;;;;;;17.20;11.00;;;;;;;;;;5001104;28;20589;-72
2021/01/31 09:53:02;;;;;;;14.07;10.27;;;;;;;;;;5012486;28;20542;-73
2021/01/31 09:56:11;;;;;;;15.77;10.90;;;;;;;;;;4994494;28;20613;-72
2021/01/31 09:59:23;;;;;;;15.20;9.37;;;;;;;;;;4993822;28;20623;-71
2021/01/31 10:02:30;;;;;;;15.33;10.97;;;;;;;;;;5016682;28;20992;-71
2021/01/31 10:05:35;;;;;;;14.77;10.53;;;;;;;;;;5004825;28;20560;-72
2021/01/31 10:08:58;;;;;;;17.17;11.37;;;;;;;;;;5004307;28;20588;-71
2021/01/31 10:12:15;;;;;;;17.60;10.90;;;;;;;;;;5004333;28;20700;-71
2021/01/31 10:15:37;;;;;;;15.70;10.00;;;;;;;;;;5015993;28;21230;-71
2021/01/31 10:18:41;;;;;;;16.60;10.83;;;;;;;;;;5009217;28;20580;-72
2021/01/31 10:21:46;;;;;;;18.47;11.97;;;;;;;;;;5008061;28;20652;-72
2021/01/31 10:24:52;;;;;;;35.67;18.30;;;;;;;;;;5006255;28;20604;-71
2021/01/31 10:27:58;;;;;;;22.10;13.33;;;;;;;;;;5006436;28;20565;-71
2021/01/31 10:31:03;;;;;;;19.40;12.10;;;;;;;;;;5011628;28;20642;-71
2021/01/31 10:34:38;;;;;;;20.03;12.87;;;;;;;;;;5007198;28;20605;-71
2021/01/31 10:37:42;;;;;;;25.27;13.57;;;;;;;;;;5006649;28;20945;-71
2021/01/31 10:40:46;;;;;;;16.03;11.10;;;;;;;;;;5008650;28;20604;-71
2021/01/31 10:44:02;;;;;;;19.13;12.00;;;;;;;;;;5009747;28;20584;-72
2021/01/31 10:47:06;;;;;;;17.93;11.20;;;;;;;;;;5003970;28;21170;-71
2021/01/31 10:50:11;;;;;;;20.43;12.07;;;;;;;;;;4985275;28;20605;-71
2021/01/31 10:53:14;;;;;;;25.27;12.70;;;;;;;;;;5004690;28;20928;-71
2021/01/31 10:56:19;;;;;;;25.43;12.73;;;;;;;;;;5015783;28;20596;-72
2021/01/31 10:59:23;;;;;;;24.97;13.53;;;;;;;;;;5015912;28;20592;-72
2021/01/31 11:02:27;;;;;;;15.57;9.87;;;;;;;;;;5015421;28;20664;-72
2021/01/31 11:05:32;;;;;;;20.33;11.80;;;;;;;;;;5015513;28;20596;-72
2021/01/31 11:08:36;;;;;;;18.23;10.80;;;;;;;;;;5014120;28;20623;-72
2021/01/31 11:11:41;;;;;;;15.63;9.93;;;;;;;;;;5014477;28;20647;-72
2021/01/31 11:14:45;;;;;;;18.37;11.30;;;;;;;;;;5015011;28;21202;-72
2021/01/31 11:17:50;;;;;;;17.43;10.93;;;;;;;;;;5015732;28;20553;-72
2021/01/31 11:20:55;;;;;;;15.17;10.33;;;;;;;;;;5015399;28;20981;-72
2021/01/31 11:23:59;;;;;;;20.27;12.47;;;;;;;;;;5003706;28;20588;-72
2021/01/31 11:27:04;;;;;;;18.97;11.63;;;;;;;;;;4995688;28;21084;-73
2021/01/31 11:30:09;;;;;;;15.50;10.70;;;;;;;;;;5011916;28;21142;-71
2021/01/31 11:33:14;;;;;;;24.87;15.20;;;;;;;;;;5015014;28;21162;-71
2021/01/31 11:36:18;;;;;;;14.63;10.27;;;;;;;;;;5014882;28;20585;-72
2021/01/31 11:39:22;;;;;;;14.83;9.57;;;;;;;;;;5015200;28;20593;-72
2021/01/31 11:42:27;;;;;;;14.37;9.50;;;;;;;;;;5002824;28;20991;-72
2021/01/31 11:45:30;;;;;;;15.60;9.83;;;;;;;;;;5014688;28;20592;-72
2021/01/31 11:48:35;;;;;;;13.60;9.80;;;;;;;;;;5014855;28;20604;-72
2021/01/31 11:51:39;;;;;;;12.00;9.03;;;;;;;;;;5002933;28;20632;-72
2021/01/31 11:54:44;;;;;;;13.20;9.30;;;;;;;;;;5014365;28;20620;-73
2021/01/31 11:57:48;;;;;;;13.27;8.73;;;;;;;;;;5002795;28;20553;-72
2021/01/31 12:00:52;;;;;;;12.70;8.23;;;;;;;;;;5014253;28;20651;-72
2021/01/31 12:03:57;;;;;;;11.37;8.30;;;;;;;;;;5002519;28;20596;-72
2021/01/31 12:07:01;;;;;;;14.37;9.20;;;;;;;;;;5014828;28;20545;-72
2021/01/31 12:10:08;;;;;;;12.17;8.07;;;;;;;;;;5014169;28;20593;-72
2021/01/31 12:13:12;;;;;;;12.83;8.50;;;;;;;;;;5001813;28;20892;-72
2021/01/31 12:16:16;;;;;;;12.63;8.90;;;;;;;;;;5013914;28;20592;-72
2021/01/31 12:19:23;;;;;;;12.03;8.13;;;;;;;;;;5014130;28;20556;-72
2021/01/31 12:22:27;;;;;;;12.70;7.80;;;;;;;;;;5001877;28;20667;-72
2021/01/31 12:25:31;;;;;;;10.63;7.87;;;;;;;;;;5001919;28;20588;-72
2021/01/31 12:28:35;;;;;;;12.33;7.97;;;;;;;;;;5013804;28;21134;-71
2021/01/31 12:31:39;;;;;;;11.27;7.30;;;;;;;;;;5014275;28;20624;-71
2021/01/31 12:34:44;;;;;;;13.90;8.60;;;;;;;;;;5001832;28;20596;-71
2021/01/31 12:37:48;;;;;;;14.70;9.17;;;;;;;;;;5014287;28;20599;-71
2021/01/31 12:40:53;;;;;;;11.70;8.77;;;;;;;;;;5001804;28;21194;-71
2021/01/31 12:43:58;;;;;;;11.77;8.30;;;;;;;;;;5013541;28;20652;-71
2021/01/31 12:47:02;;;;;;;13.57;8.97;;;;;;;;;;5013627;28;20624;-71
2021/01/31 12:50:07;;;;;;;15.60;9.33;;;;;;;;;;5013673;28;20960;-71
2021/01/31 12:53:11;;;;;;;12.50;7.60;;;;;;;;;;5013728;28;20537;-71
2021/01/31 12:56:16;;;;;;;13.87;8.80;;;;;;;;;;4982176;28;21096;-71
2021/01/31 12:59:21;;;;;;;15.93;9.03;;;;;;;;;;5012899;28;20707;-71
2021/01/31 13:02:28;;;;;;;13.63;9.27;;;;;;;;;;5013702;28;20632;-71
2021/01/31 13:05:32;;;;;;;16.03;9.33;;;;;;;;;;5001681;28;20556;-71
2021/01/31 13:08:36;;;;;;;14.70;9.00;;;;;;;;;;5013455;28;20597;-71
2021/01/31 13:11:40;;;;;;;16.63;9.20;;;;;;;;;;5013838;28;20964;-71
2021/01/31 13:14:45;;;;;;;13.57;8.53;;;;;;;;;;5012907;28;20612;-72
2021/01/31 13:17:49;;;;;;;13.83;9.20;;;;;;;;;;5006055;28;20592;-71
2021/01/31 13:20:53;;;;;;;14.53;8.67;;;;;;;;;;5001210;28;20615;-72
2021/01/31 13:23:57;;;;;;;14.63;9.47;;;;;;;;;;5001106;28;20647;-71
2021/01/31 13:27:03;;;;;;;13.03;8.70;;;;;;;;;;5013505;28;20600;-71
2021/01/31 13:30:09;;;;;;;13.13;8.17;;;;;;;;;;5000568;28;20589;-71
2021/01/31 13:33:13;;;;;;;15.13;8.60;;;;;;;;;;5013107;28;20631;-71
2021/01/31 13:36:18;;;;;;;13.80;8.37;;;;;;;;;;4994916;28;20929;-71
2021/01/31 13:39:22;;;;;;;13.87;8.20;;;;;;;;;;5013389;28;20541;-72
2021/01/31 13:42:26;;;;;;;14.07;8.90;;;;;;;;;;4999040;28;20644;-72
2021/01/31 13:45:30;;;;;;;15.17;8.87;;;;;;;;;;5001052;28;20556;-72
2021/01/31 13:48:35;;;;;;;13.67;8.27;;;;;;;;;;5000700;28;20588;-72
2021/01/31 13:51:39;;;;;;;13.80;8.33;;;;;;;;;;5012887;28;20665;-72
2021/01/31 13:54:45;;;;;;;13.37;8.30;;;;;;;;;;5000972;28;20552;-72
2021/01/31 13:57:49;;;;;;;34.33;19.33;;;;;;;;;;5013231;28;20557;-72
2021/01/31 14:00:54;;;;;;;19.40;11.13;;;;;;;;;;5013255;28;20619;-72
2021/01/31 14:03:58;;;;;;;11.83;7.13;;;;;;;;;;5012445;28;20968;-72
2021/01/31 14:07:02;;;;;;;17.13;9.93;;;;;;;;;;5013299;28;20544;-72
2021/01/31 14:10:12;;;;;;;17.87;11.00;;;;;;;;;;5013291;28;20545;-72
2021/01/31 14:13:16;;;;;;;11.43;7.17;;;;;;;;;;5013506;28;20545;-72
2021/01/31 14:16:20;;;;;;;11.27;7.10;;;;;;;;;;5026865;23;20692;-73
2021/01/31 14:19:24;;;;;;;10.30;6.50;;;;;;;;;;5013603;28;20604;-72
2021/01/31 14:22:28;;;;;;;9.20;6.23;;;;;;;;;;5013957;28;20632;-72
2021/01/31 14:25:33;;;;;;;9.97;6.73;;;;;;;;;;5013335;28;20584;-72
2021/01/31 14:28:37;;;;;;;11.30;6.77;;;;;;;;;;5013688;28;20561;-72
2021/01/31 14:31:41;;;;;;;12.03;7.30;;;;;;;;;;5014164;28;20967;-72
2021/01/31 14:34:46;;;;;;;13.57;6.63;;;;;;;;;;5001621;28;20548;-72
2021/01/31 14:37:50;;;;;;;11.33;6.77;;;;;;;;;;5013327;28;20541;-72
2021/01/31 14:40:54;;;;;;;12.00;7.30;;;;;;;;;;5013595;28;20623;-72
2021/01/31 14:43:58;;;;;;;9.80;6.90;;;;;;;;;;5017552;28;20596;-72
2021/01/31 14:47:02;;;;;;;19.07;11.87;;;;;;;;;;5016738;28;20592;-72
2021/01/31 14:50:07;;;;;;;17.67;10.33;;;;;;;;;;5017149;28;20560;-73
2021/01/31 14:53:12;;;;;;;13.20;8.47;;;;;;;;;;5017054;28;20541;-72
2021/01/31 14:56:16;;;;;;;14.50;8.73;;;;;;;;;;5016400;28;21074;-72
2021/01/31 14:59:26;;;;;;;18.97;11.47;;;;;;;;;;5016843;28;20604;-72
2021/01/31 15:02:30;;;;;;;21.03;11.77;;;;;;;;;;5017363;28;20624;-72
2021/01/31 15:05:34;;;;;;;14.83;9.50;;;;;;;;;;5016754;28;20536;-73
2021/01/31 15:08:38;;;;;;;19.57;12.03;;;;;;;;;;5017548;28;20632;-72
2021/01/31 15:11:42;;;;;;;12.60;8.97;;;;;;;;;;5029155;28;20643;-72
2021/01/31 15:14:46;;;;;;;17.37;11.90;;;;;;;;;;5031258;28;20580;-73
2021/01/31 15:17:50;;;;;;;13.87;8.80;;;;;;;;;;5019969;28;20616;-72
2021/01/31 15:20:55;;;;;;;12.83;7.93;;;;;;;;;;5006907;28;20652;-72
2021/01/31 15:23:59;;;;;;;12.90;8.37;;;;;;;;;;5016521;28;20584;-73
2021/01/31 15:27:04;;;;;;;11.87;8.00;;;;;;;;;;5015418;28;20541;-72
2021/01/31 15:30:13;;;;;;;13.00;8.47;;;;;;;;;;5015680;28;20549;-72
2021/01/31 15:33:18;;;;;;;13.27;9.13;;;;;;;;;;5015779;28;20620;-72
2021/01/31 15:36:22;;;;;;;16.77;9.93;;;;;;;;;;5004151;28;20545;-72
2021/01/31 15:39:26;;;;;;;14.07;9.93;;;;;;;;;;5016137;28;20537;-72
2021/01/31 15:42:30;;;;;;;15.67;10.20;;;;;;;;;;4995455;28;20613;-72
2021/01/31 15:45:35;;;;;;;12.87;8.40;;;;;;;;;;4995324;28;20547;-72
2021/01/31 15:48:39;;;;;;;13.90;8.93;;;;;;;;;;4995212;28;20550;-71
2021/01/31 15:51:43;;;;;;;15.10;9.33;;;;;;;;;;5019883;28;21011;-71
2021/01/31 15:54:47;;;;;;;16.23;10.40;;;;;;;;;;5014615;28;20589;-71
2021/01/31 15:57:52;;;;;;;14.30;9.53;;;;;;;;;;5003676;28;20551;-71
2021/01/31 16:00:56;;;;;;;13.87;9.03;;;;;;;;;;5015281;28;20647;-71
2021/01/31 16:04:00;;;;;;;17.20;11.83;;;;;;;;;;5013861;28;20624;-71
2021/01/31 16:07:04;;;;;;;14.20;9.33;;;;;;;;;;5013720;28;20584;-71
2021/01/31 16:10:09;;;;;;;14.77;9.77;;;;;;;;;;5014964;28;20601;-71
2021/01/31 16:13:14;;;;;;;17.20;11.60;;;;;;;;;;5015388;28;20928;-71
2021/01/31 16:16:19;;;;;;;14.47;10.23;;;;;;;;;;4993967;28;20953;-73
2021/01/31 16:19:23;;;;;;;16.53;10.77;;;;;;;;;;5011193;28;20588;-73
2021/01/31 16:22:27;;;;;;;19.33;11.07;;;;;;;;;;5013533;28;20663;-73
2021/01/31 16:25:34;;;;;;;15.90;10.30;;;;;;;;;;5014102;28;21119;-73
2021/01/31 16:28:38;;;;;;;14.57;9.80;;;;;;;;;;5015000;28;20560;-72
2021/01/31 16:31:48;;;;;;;16.30;10.00;;;;;;;;;;5014573;28;20632;-72
2021/01/31 16:34:52;;;;;;;14.60;9.53;;;;;;;;;;4994851;28;20542;-72
2021/01/31 16:37:57;;;;;;;16.77;11.20;;;;;;;;;;4999741;28;20592;-70
2021/01/31 16:41:02;;;;;;;15.93;9.90;;;;;;;;;;5013755;28;20648;-71
2021/01/31 16:44:06;;;;;;;14.57;10.10;;;;;;;;;;4982696;28;20609;-71
2021/01/31 16:47:10;;;;;;;14.27;10.03;;;;;;;;;;5030816;28;20587;-71
2021/01/31 16:50:14;;;;;;;14.50;9.47;;;;;;;;;;5013000;28;20596;-71
2021/01/31 16:53:19;;;;;;;15.13;9.50;;;;;;;;;;5013432;28;20545;-71
2021/01/31 16:56:23;;;;;;;14.13;9.47;;;;;;;;;;5013619;28;20932;-71
2021/01/31 16:59:28;;;;;;;12.70;8.53;;;;;;;;;;5003604;28;20581;-71
2021/01/31 17:02:32;;;;;;;16.37;10.00;;;;;;;;;;5013718;28;20636;-71
2021/01/31 17:05:41;;;;;;;14.40;8.83;;;;;;;;;;5012938;28;20600;-70
2021/01/31 17:08:47;;;;;;;17.80;10.30;;;;;;;;;;5013153;28;20600;-71
2021/01/31 17:11:52;;;;;;;15.90;9.23;;;;;;;;;;5012630;28;20655;-71
2021/01/31 17:14:56;;;;;;;13.23;8.93;;;;;;;;;;5013168;28;20620;-71
2021/01/31 17:18:02;;;;;;;14.63;9.83;;;;;;;;;;5019466;28;20572;-71
2021/01/31 17:21:07;;;;;;;14.53;9.83;;;;;;;;;;5010350;28;20657;-71
2021/01/31 17:24:12;;;;;;;15.20;9.93;;;;;;;;;;5002075;28;20616;-71
2021/01/31 17:27:17;;;;;;;15.40;10.50;;;;;;;;;;5013858;28;21079;-71
2021/01/31 17:30:23;;;;;;;17.37;10.80;;;;;;;;;;5012966;28;20588;-71
2021/01/31 17:33:28;;;;;;;13.20;8.87;;;;;;;;;;5013370;28;20545;-72
2021/01/31 17:36:32;;;;;;;14.97;9.57;;;;;;;;;;5013658;28;21071;-71
2021/01/31 17:39:37;;;;;;;13.93;9.57;;;;;;;;;;5012743;28;20561;-71
2021/01/31 17:42:41;;;;;;;12.00;8.13;;;;;;;;;;5012545;28;20647;-72
2021/01/31 17:45:45;;;;;;;14.23;8.97;;;;;;;;;;5013947;28;21178;-71
2021/01/31 17:48:49;;;;;;;14.27;9.10;;;;;;;;;;5002031;28;20604;-72
2021/01/31 17:51:53;;;;;;;17.83;9.80;;;;;;;;;;5013091;28;20652;-72
2021/01/31 17:54:58;;;;;;;14.83;9.67;;;;;;;;;;5013427;28;20927;-71
2021/01/31 17:58:04;;;;;;;12.60;8.57;;;;;;;;;;5013385;28;20553;-72
2021/01/31 18:01:12;;;;;;;14.63;8.63;;;;;;;;;;5013094;28;20651;-71
2021/01/31 18:04:16;;;;;;;13.67;9.00;;;;;;;;;;5013561;28;20609;-71
2021/01/31 18:07:21;;;;;;;14.47;9.37;;;;;;;;;;4994208;28;20960;-72
2021/01/31 18:10:25;;;;;;;13.27;8.80;;;;;;;;;;4999379;28;20600;-72
2021/01/31 18:13:30;;;;;;;13.83;8.57;;;;;;;;;;5012534;28;21099;-71
2021/01/31 18:16:35;;;;;;;14.50;8.63;;;;;;;;;;5013379;28;20604;-72
2021/01/31 18:19:40;;;;;;;14.63;8.77;;;;;;;;;;5013459;28;21173;-72
2021/01/31 18:22:45;;;;;;;15.23;9.73;;;;;;;;;;5016915;28;20628;-72
2021/01/31 18:25:49;;;;;;;14.80;8.93;;;;;;;;;;5017202;28;20638;-72
2021/01/31 18:28:53;;;;;;;14.47;8.37;;;;;;;;;;5008002;28;20592;-72
2021/01/31 18:31:58;;;;;;;13.20;8.93;;;;;;;;;;5007210;28;20652;-71